Aviation Digital Data Service (ADDS)

Output produced by METARs form (2226 UTC 02 August 2015)
found at http://aviationweather.gov/adds/metars/
 
KPGV 021721Z 0218/0318 15004KT P6SM SKC 
     FM030900 VRB03KT 4SM BR SCT250 
     FM031300 21004KT P6SM OVC120 AMD LTD TO CLD VIS AND WIND